Time;durP1;ratioP1;P1;durP2;ratioP2;P2;SDS_P1;SDS_P2;PMS_P1;PMS_P2;Temp;Humidity;BMP_temperature;BMP_pressure;BME280_temperature;BME280_humidity;BME280_pressure;Samples;Min_cycle;Max_cycle;Signal;HPM_P1;HPM_P2
2021/05/04 00:01:42;;;;;;;16.15;13.25;;;6.10;89.20;;;;;;4930034;29;21565;-69
2021/05/04 00:04:07;;;;;;;15.98;13.07;;;6.10;89.20;;;;;;4928679;29;20032;-70
2021/05/04 00:06:33;;;;;;;15.65;12.93;;;6.10;89.20;;;;;;4929200;29;20994;-70
2021/05/04 00:08:59;;;;;;;15.23;12.48;;;6.10;88.90;;;;;;4927262;29;20035;-71
2021/05/04 00:11:25;;;;;;;15.90;12.65;;;6.10;89.00;;;;;;4927517;29;20508;-71
2021/05/04 00:13:51;;;;;;;16.02;13.27;;;6.10;88.60;;;;;;4929134;29;20065;-70
2021/05/04 00:16:17;;;;;;;14.40;11.57;;;6.10;88.30;;;;;;4929407;29;20118;-71
2021/05/04 00:18:43;;;;;;;16.00;11.82;;;6.10;88.20;;;;;;4927118;29;20024;-71
2021/05/04 00:21:08;;;;;;;15.07;12.27;;;6.10;88.00;;;;;;4929064;29;20090;-73
2021/05/04 00:23:34;;;;;;;17.30;12.75;;;6.10;88.30;;;;;;4930797;29;20028;-71
2021/05/04 00:26:00;;;;;;;14.55;11.38;;;6.10;88.10;;;;;;4926925;29;20043;-70
2021/05/04 00:28:25;;;;;;;14.80;11.05;;;6.10;87.60;;;;;;4930925;29;20042;-71
2021/05/04 00:30:51;;;;;;;14.35;11.63;;;6.20;87.20;;;;;;4928051;29;20061;-72
2021/05/04 00:33:17;;;;;;;17.67;11.55;;;6.10;87.50;;;;;;4928147;29;20563;-70
2021/05/04 00:35:43;;;;;;;14.73;10.68;;;6.20;87.10;;;;;;4927744;29;20106;-71
2021/05/04 00:38:09;;;;;;;13.35;10.15;;;6.10;87.40;;;;;;4929244;29;20046;-71
2021/05/04 00:40:34;;;;;;;13.90;10.85;;;6.20;86.50;;;;;;4928619;29;20024;-71
2021/05/04 00:43:00;;;;;;;12.93;9.15;;;6.20;86.60;;;;;;4929028;29;20492;-70
2021/05/04 00:45:26;;;;;;;12.50;9.20;;;6.20;86.10;;;;;;4929050;29;20396;-71
2021/05/04 00:47:51;;;;;;;12.98;9.18;;;6.20;86.00;;;;;;4927526;29;20035;-70
2021/05/04 00:50:17;;;;;;;12.10;9.50;;;6.20;86.40;;;;;;4928018;29;20050;-70
2021/05/04 00:52:43;;;;;;;12.15;9.23;;;6.20;86.50;;;;;;4931830;29;20042;-72
2021/05/04 00:55:10;;;;;;;12.48;8.80;;;6.20;86.00;;;;;;4928420;29;20036;-70
2021/05/04 00:57:37;;;;;;;11.88;8.35;;;6.40;85.50;;;;;;4929184;29;20122;-70
2021/05/04 01:00:05;;;;;;;10.23;8.10;;;6.40;85.20;;;;;;4926832;29;20027;-73
2021/05/04 01:02:35;;;;;;;12.10;8.65;;;6.40;84.90;;;;;;4928543;29;20034;-71
2021/05/04 01:05:01;;;;;;;12.00;8.27;;;6.30;85.30;;;;;;4930130;29;20024;-70
2021/05/04 01:07:27;;;;;;;11.60;7.57;;;6.40;84.90;;;;;;4930599;29;20040;-71
2021/05/04 01:09:54;;;;;;;10.07;7.20;;;6.40;83.90;;;;;;4937244;29;20024;-71
2021/05/04 01:12:20;;;;;;;9.57;6.95;;;6.50;84.00;;;;;;4930012;29;20083;-71
2021/05/04 01:14:46;;;;;;;10.73;7.50;;;6.60;82.90;;;;;;4929971;29;20420;-71
2021/05/04 01:17:12;;;;;;;9.75;7.47;;;6.50;83.50;;;;;;4930501;29;20028;-71
2021/05/04 01:19:37;;;;;;;9.55;6.90;;;6.60;82.60;;;;;;4929831;29;20078;-71
2021/05/04 01:22:03;;;;;;;8.07;6.55;;;6.70;82.80;;;;;;4939306;29;20419;-71
2021/05/04 01:24:29;;;;;;;7.55;6.30;;;6.60;83.10;;;;;;4939495;28;20053;-72
2021/05/04 01:26:58;;;;;;;7.57;6.00;;;6.70;82.20;;;;;;4928544;29;20118;-71
2021/05/04 01:29:24;;;;;;;10.85;6.70;;;6.80;81.40;;;;;;4934436;29;20102;-71
2021/05/04 01:31:49;;;;;;;10.07;6.68;;;6.80;81.80;;;;;;4934664;29;20047;-73
2021/05/04 01:34:15;;;;;;;12.57;6.82;;;6.70;82.10;;;;;;4932674;29;20032;-72
2021/05/04 01:36:41;;;;;;;9.43;6.10;;;6.70;81.70;;;;;;4929280;29;20430;-72
2021/05/04 01:39:08;;;;;;;8.35;5.35;;;6.80;81.60;;;;;;4928698;29;20079;-71
2021/05/04 01:41:35;;;;;;;9.50;6.20;;;6.80;81.70;;;;;;4931940;29;20452;-72
2021/05/04 01:44:01;;;;;;;9.98;6.93;;;6.70;82.10;;;;;;4931116;29;20024;-72
2021/05/04 01:46:31;;;;;;;9.10;6.38;;;6.70;82.80;;;;;;4932043;29;20551;-71
2021/05/04 01:49:00;;;;;;;8.73;6.72;;;6.70;82.90;;;;;;4932404;29;20034;-72
2021/05/04 01:51:28;;;;;;;10.75;6.30;;;6.60;83.20;;;;;;4932634;29;20408;-71
2021/05/04 01:53:54;;;;;;;9.95;5.72;;;6.60;83.00;;;;;;4934913;29;20035;-70
2021/05/04 01:56:20;;;;;;;8.50;5.95;;;6.70;82.70;;;;;;4929304;29;20107;-71
2021/05/04 01:58:46;;;;;;;8.30;6.28;;;6.60;83.20;;;;;;4937903;29;20106;-71
2021/05/04 02:01:11;;;;;;;10.23;6.38;;;6.60;84.00;;;;;;4929240;29;20472;-72
2021/05/04 02:03:37;;;;;;;9.75;6.45;;;6.60;83.10;;;;;;4936942;29;20079;-71
2021/05/04 02:06:03;;;;;;;8.98;5.82;;;6.60;84.00;;;;;;4929457;29;20036;-71
2021/05/04 02:08:28;;;;;;;8.30;6.10;;;6.70;82.70;;;;;;4932476;29;20032;-69
2021/05/04 02:10:54;;;;;;;8.52;5.82;;;6.60;83.20;;;;;;4946406;28;20031;-71
2021/05/04 02:13:22;;;;;;;17.48;5.72;;;6.70;82.90;;;;;;4932044;29;20463;-72
2021/05/04 02:15:47;;;;;;;9.43;6.20;;;6.70;82.60;;;;;;4931910;29;20032;-72
2021/05/04 02:18:13;;;;;;;7.28;5.30;;;6.80;82.10;;;;;;4936363;29;20082;-72
2021/05/04 02:20:38;;;;;;;9.07;5.70;;;6.80;82.20;;;;;;4935796;29;20040;-71
2021/05/04 02:23:04;;;;;;;8.40;4.93;;;6.80;81.40;;;;;;4938439;29;20091;-71
2021/05/04 02:25:29;;;;;;;9.15;4.93;;;6.80;81.40;;;;;;4937878;29;20396;-71
2021/05/04 02:27:55;;;;;;;8.02;5.88;;;6.90;80.80;;;;;;4931870;29;20046;-71
2021/05/04 02:30:21;;;;;;;9.75;4.88;;;7.00;80.20;;;;;;4933703;29;20063;-72
2021/05/04 02:32:47;;;;;;;8.43;5.32;;;7.00;80.40;;;;;;4944317;29;20027;-72
2021/05/04 02:35:12;;;;;;;7.30;4.95;;;6.90;80.50;;;;;;4942868;28;20039;-71
2021/05/04 02:37:38;;;;;;;9.80;5.53;;;7.00;80.20;;;;;;4934138;29;20028;-71
2021/05/04 02:40:04;;;;;;;6.68;4.72;;;7.00;80.60;;;;;;4936203;29;20070;-71
2021/05/04 02:42:30;;;;;;;9.07;4.95;;;7.00;80.20;;;;;;4931978;29;20028;-71
2021/05/04 02:44:56;;;;;;;6.80;4.78;;;7.00;79.90;;;;;;4933263;29;20079;-74
2021/05/04 02:47:21;;;;;;;7.15;4.22;;;7.00;79.50;;;;;;4933108;29;20035;-71
2021/05/04 02:49:47;;;;;;;7.20;4.40;;;7.00;79.60;;;;;;4933412;29;20031;-71
2021/05/04 02:52:12;;;;;;;8.95;4.85;;;7.00;80.00;;;;;;4930989;29;20484;-71
2021/05/04 02:54:38;;;;;;;7.68;4.80;;;7.00;79.90;;;;;;4933400;29;20160;-72
2021/05/04 02:57:04;;;;;;;6.78;4.65;;;7.00;79.80;;;;;;4933821;29;20036;-71
2021/05/04 02:59:30;;;;;;;6.43;3.97;;;7.10;79.40;;;;;;4943406;29;20086;-71
2021/05/04 03:01:56;;;;;;;7.22;4.15;;;7.10;79.40;;;;;;4939902;29;20110;-71
2021/05/04 03:04:21;;;;;;;8.38;4.05;;;7.10;79.20;;;;;;4934408;29;20034;-71
2021/05/04 03:06:47;;;;;;;5.53;3.65;;;7.20;78.00;;;;;;4933500;29;20050;-72
2021/05/04 03:09:12;;;;;;;7.03;3.90;;;7.30;77.60;;;;;;4933057;29;20040;-72
2021/05/04 03:11:38;;;;;;;7.70;4.10;;;7.30;76.90;;;;;;4933422;29;20214;-72
2021/05/04 03:14:04;;;;;;;6.05;3.70;;;7.50;76.50;;;;;;4933066;29;20043;-72
2021/05/04 03:16:29;;;;;;;6.05;3.67;;;7.60;75.60;;;;;;4934420;29;20031;-72
2021/05/04 03:18:55;;;;;;;6.78;3.50;;;7.60;75.90;;;;;;4948583;29;20034;-71
2021/05/04 03:21:21;;;;;;;6.20;3.53;;;7.70;74.70;;;;;;4938038;29;20052;-72
2021/05/04 03:23:47;;;;;;;5.13;3.13;;;8.00;73.40;;;;;;4934728;29;20067;-72
2021/05/04 03:26:14;;;;;;;5.40;2.92;;;8.10;73.30;;;;;;4931221;29;20106;-71
2021/05/04 03:28:40;;;;;;;5.05;3.10;;;8.20;72.10;;;;;;4937767;29;20035;-71
2021/05/04 03:31:05;;;;;;;4.90;2.88;;;8.10;73.30;;;;;;4942292;29;20512;-72
2021/05/04 03:33:31;;;;;;;4.85;2.75;;;8.10;73.10;;;;;;4939417;29;20076;-72
2021/05/04 03:35:56;;;;;;;5.40;3.15;;;8.20;72.20;;;;;;4937146;29;20140;-72
2021/05/04 03:38:22;;;;;;;3.75;2.67;;;8.10;72.90;;;;;;4937915;29;20039;-72
2021/05/04 03:40:47;;;;;;;6.32;2.90;;;8.30;72.70;;;;;;4931639;29;20036;-72
2021/05/04 03:43:13;;;;;;;4.82;2.65;;;8.40;70.20;;;;;;4936644;29;20122;-74
2021/05/04 03:45:39;;;;;;;5.07;2.83;;;8.50;70.30;;;;;;4932234;29;20389;-72
2021/05/04 03:48:05;;;;;;;3.72;2.42;;;8.50;70.10;;;;;;4934777;29;20034;-72
2021/05/04 03:50:32;;;;;;;4.97;2.42;;;8.70;69.30;;;;;;4946031;29;20109;-72
2021/05/04 03:52:59;;;;;;;6.22;2.58;;;8.90;67.60;;;;;;4938862;29;20074;-71
2021/05/04 03:55:25;;;;;;;4.07;2.75;;;8.80;68.80;;;;;;4942631;28;20112;-71
2021/05/04 03:57:52;;;;;;;5.43;2.40;;;9.10;67.50;;;;;;4932372;29;20400;-71
2021/05/04 04:00:19;;;;;;;16.20;2.90;;;9.10;68.00;;;;;;4949527;29;20050;-72
2021/05/04 04:02:45;;;;;;;7.68;2.53;;;9.40;65.70;;;;;;4935708;29;20023;-73
2021/05/04 04:05:11;;;;;;;4.60;2.83;;;9.30;66.60;;;;;;4935141;29;20099;-73
2021/05/04 04:07:38;;;;;;;3.90;2.50;;;9.30;67.90;;;;;;4930521;29;20571;-73
2021/05/04 04:10:04;;;;;;;4.72;3.05;;;9.20;69.30;;;;;;4948479;29;20070;-71
2021/05/04 04:12:30;;;;;;;5.40;2.97;;;9.20;70.00;;;;;;4940473;28;20087;-70
2021/05/04 04:14:56;;;;;;;4.93;3.13;;;9.00;73.10;;;;;;4932674;28;20127;-71
2021/05/04 04:17:22;;;;;;;5.18;3.20;;;9.00;72.50;;;;;;4933342;29;20038;-71
2021/05/04 04:19:47;;;;;;;4.97;3.15;;;9.00;73.10;;;;;;4931204;29;20047;-71
2021/05/04 04:22:13;;;;;;;6.97;3.33;;;8.70;75.20;;;;;;4928727;29;20046;-71
2021/05/04 04:24:39;;;;;;;6.97;3.67;;;8.60;76.00;;;;;;4930624;29;20067;-71
2021/05/04 04:27:04;;;;;;;7.80;3.70;;;8.30;79.10;;;;;;4931129;29;20091;-74
2021/05/04 04:29:32;;;;;;;5.88;3.25;;;8.40;78.20;;;;;;4930391;29;20392;-71
2021/05/04 04:31:58;;;;;;;6.18;3.58;;;8.30;78.80;;;;;;4930143;29;20034;-71
2021/05/04 04:34:23;;;;;;;6.03;3.45;;;8.20;80.30;;;;;;4926694;29;20111;-71
2021/05/04 04:36:49;;;;;;;6.07;3.58;;;8.10;80.70;;;;;;4931067;29;20083;-71
2021/05/04 04:39:14;;;;;;;5.60;3.28;;;8.10;81.70;;;;;;4930018;29;20023;-71
2021/05/04 04:41:41;;;;;;;5.82;3.67;;;8.10;81.40;;;;;;4934101;29;20484;-71
2021/05/04 04:44:08;;;;;;;5.43;3.78;;;8.00;82.50;;;;;;4933486;29;20630;-71
2021/05/04 04:46:40;;;;;;;8.55;4.22;;;7.90;83.90;;;;;;4938380;29;20059;-73
2021/05/04 04:49:11;;;;;;;6.60;3.90;;;7.80;84.20;;;;;;4939918;29;20031;-73
2021/05/04 04:51:37;;;;;;;;;;;7.80;84.20;;;;;;4927033;29;20027;-71
2021/05/04 04:54:04;;;;;;;10.10;3.70;;;7.70;85.60;;;;;;4924385;29;19969;-70
2021/05/04 04:56:30;;;;;;;7.07;4.63;;;7.70;85.40;;;;;;4927814;29;20035;-71
2021/05/04 04:58:56;;;;;;;7.00;4.43;;;7.60;85.60;;;;;;4932327;29;20510;-71
2021/05/04 05:01:21;;;;;;;6.30;4.10;;;7.70;86.50;;;;;;4926785;29;20028;-71
2021/05/04 05:03:47;;;;;;;5.68;4.15;;;7.50;87.00;;;;;;4928850;29;20028;-72
2021/05/04 05:06:13;;;;;;;6.32;4.38;;;7.50;87.10;;;;;;4927461;29;20051;-72
2021/05/04 05:08:38;;;;;;;6.80;4.60;;;7.50;87.30;;;;;;4927757;29;20115;-71
2021/05/04 05:11:04;;;;;;;7.88;4.60;;;7.40;88.60;;;;;;4928799;29;20040;-70
2021/05/04 05:13:29;;;;;;;7.97;4.57;;;7.40;88.50;;;;;;4926551;29;20071;-73
2021/05/04 05:15:55;;;;;;;9.05;4.20;;;7.40;88.70;;;;;;4929860;29;20027;-71
2021/05/04 05:18:21;;;;;;;7.28;4.95;;;7.40;88.80;;;;;;4930498;29;20398;-71
2021/05/04 05:20:46;;;;;;;7.72;4.65;;;7.30;89.60;;;;;;4928333;29;20024;-71
2021/05/04 05:23:12;;;;;;;6.72;4.78;;;7.30;90.10;;;;;;4925946;29;20548;-73
2021/05/04 05:25:39;;;;;;;7.72;4.40;;;7.30;90.00;;;;;;4928546;29;20111;-72
2021/05/04 05:28:06;;;;;;;11.65;4.95;;;7.20;90.40;;;;;;4929933;29;20119;-71
2021/05/04 05:30:32;;;;;;;7.63;5.03;;;7.20;91.00;;;;;;4929161;29;20024;-71
2021/05/04 05:32:58;;;;;;;9.60;5.03;;;7.20;91.10;;;;;;4929203;29;20036;-71
2021/05/04 05:35:24;;;;;;;9.50;5.00;;;7.10;91.30;;;;;;4930016;29;20054;-72
2021/05/04 05:37:49;;;;;;;7.13;4.80;;;7.20;91.50;;;;;;4930396;29;20039;-73
2021/05/04 05:40:15;;;;;;;7.28;4.40;;;7.10;91.60;;;;;;4930301;29;20103;-70
2021/05/04 05:42:40;;;;;;;7.60;5.15;;;7.10;92.10;;;;;;4930206;29;20043;-71
2021/05/04 05:45:07;;;;;;;8.70;5.35;;;7.10;92.10;;;;;;4930212;29;20031;-71
2021/05/04 05:47:32;;;;;;;7.00;4.40;;;7.10;92.20;;;;;;4928350;29;20027;-70
2021/05/04 05:49:58;;;;;;;7.38;4.60;;;7.10;92.30;;;;;;4930172;29;20125;-73
2021/05/04 05:52:24;;;;;;;7.40;4.38;;;7.10;92.10;;;;;;4927289;29;20043;-74
2021/05/04 05:54:49;;;;;;;7.55;4.65;;;7.20;92.10;;;;;;4931816;29;20400;-71
2021/05/04 05:57:15;;;;;;;6.45;4.50;;;7.20;92.10;;;;;;4933198;29;20118;-71
2021/05/04 05:59:40;;;;;;;7.40;4.80;;;7.10;92.50;;;;;;4931581;29;20023;-70
2021/05/04 06:02:07;;;;;;;5.97;3.85;;;7.30;91.90;;;;;;4933535;29;20090;-70
2021/05/04 06:04:33;;;;;;;7.88;4.65;;;7.40;91.50;;;;;;4931295;29;20032;-73
2021/05/04 06:06:58;;;;;;;10.35;3.97;;;7.40;91.50;;;;;;4930380;29;20423;-70
2021/05/04 06:09:24;;;;;;;8.30;4.55;;;7.40;91.20;;;;;;4933215;29;20035;-71
2021/05/04 06:11:50;;;;;;;8.73;4.78;;;7.40;91.30;;;;;;4930629;29;20044;-70
2021/05/04 06:14:16;;;;;;;7.03;4.13;;;7.40;91.70;;;;;;4931843;29;20032;-72
2021/05/04 06:16:42;;;;;;;5.93;4.05;;;7.50;92.10;;;;;;4932477;29;20027;-73
2021/05/04 06:19:08;;;;;;;7.82;4.65;;;7.50;92.10;;;;;;4932708;29;20234;-71
2021/05/04 06:21:33;;;;;;;6.80;4.20;;;7.50;92.20;;;;;;4933566;29;20030;-71
2021/05/04 06:23:59;;;;;;;6.22;4.07;;;7.40;92.00;;;;;;4929789;29;20070;-71
2021/05/04 06:26:24;;;;;;;7.93;3.78;;;7.40;92.00;;;;;;4933465;29;20395;-71
2021/05/04 06:28:50;;;;;;;7.05;4.50;;;7.50;92.20;;;;;;4932642;29;20027;-71
2021/05/04 06:31:17;;;;;;;7.32;4.30;;;7.50;91.70;;;;;;4932759;29;20082;-71
2021/05/04 06:33:43;;;;;;;8.88;4.13;;;7.40;91.70;;;;;;4931397;29;20035;-71
2021/05/04 06:36:10;;;;;;;8.93;4.30;;;7.50;91.60;;;;;;4933228;29;20038;-71
2021/05/04 06:38:36;;;;;;;4.45;3.45;;;7.50;91.00;;;;;;4930877;29;20109;-75
2021/05/04 06:41:02;;;;;;;4.93;3.42;;;7.50;91.00;;;;;;4930553;29;20058;-71
2021/05/04 06:43:27;;;;;;;6.85;3.10;;;7.50;90.40;;;;;;4929663;29;20303;-70
2021/05/04 06:45:53;;;;;;;5.93;3.47;;;7.60;89.80;;;;;;4929528;29;20028;-72
2021/05/04 06:48:19;;;;;;;7.38;3.83;;;7.70;89.90;;;;;;4931827;29;20023;-71
2021/05/04 06:50:44;;;;;;;7.45;3.45;;;7.60;90.20;;;;;;4932417;29;20063;-73
2021/05/04 06:53:10;;;;;;;6.25;3.03;;;7.70;90.00;;;;;;4926980;29;20280;-71
2021/05/04 06:55:36;;;;;;;4.57;3.13;;;7.80;89.00;;;;;;4929566;29;20023;-72
2021/05/04 06:58:02;;;;;;;5.22;3.13;;;7.90;89.10;;;;;;4928303;29;20401;-72
2021/05/04 07:00:27;;;;;;;6.05;3.25;;;8.10;88.10;;;;;;4928665;29;20138;-72
2021/05/04 07:02:53;;;;;;;3.80;2.78;;;8.30;88.20;;;;;;4931418;29;20028;-72
2021/05/04 07:05:19;;;;;;;5.55;2.72;;;8.30;87.60;;;;;;4931590;29;20031;-72
2021/05/04 07:07:45;;;;;;;3.88;2.60;;;8.40;87.60;;;;;;4933656;29;20051;-71
2021/05/04 07:10:12;;;;;;;4.40;2.65;;;8.40;87.70;;;;;;4939524;29;20070;-71
2021/05/04 07:12:38;;;;;;;4.43;2.70;;;8.40;87.40;;;;;;4939290;29;20060;-71
2021/05/04 07:15:04;;;;;;;4.93;2.50;;;8.40;88.10;;;;;;4932995;29;20031;-72
2021/05/04 07:17:30;;;;;;;4.15;2.50;;;8.40;87.20;;;;;;4932767;29;20026;-72
2021/05/04 07:19:56;;;;;;;5.38;2.50;;;8.40;86.70;;;;;;4932833;29;20027;-72
2021/05/04 07:22:23;;;;;;;3.75;2.00;;;8.40;87.40;;;;;;4932990;29;20028;-73
2021/05/04 07:24:49;;;;;;;5.80;2.58;;;8.40;86.60;;;;;;4929698;29;20062;-73
2021/05/04 07:27:15;;;;;;;6.45;2.40;;;8.40;87.40;;;;;;4932597;29;20067;-71
2021/05/04 07:29:40;;;;;;;4.85;2.78;;;8.40;87.40;;;;;;4930866;29;20556;-71
2021/05/04 07:32:07;;;;;;;4.60;2.78;;;8.50;87.20;;;;;;4932045;29;20036;-71
2021/05/04 07:34:32;;;;;;;3.83;2.42;;;8.50;87.20;;;;;;4932598;29;20487;-72
2021/05/04 07:36:58;;;;;;;3.90;2.20;;;8.50;87.00;;;;;;4932316;29;20082;-71
2021/05/04 07:39:24;;;;;;;3.88;2.60;;;8.50;88.20;;;;;;4931889;29;20094;-69
2021/05/04 07:41:50;;;;;;;4.03;2.22;;;8.50;89.10;;;;;;4932777;29;20023;-70
2021/05/04 07:44:15;;;;;;;4.90;2.40;;;8.40;88.20;;;;;;4931490;29;20099;-69
2021/05/04 07:46:41;;;;;;;4.45;2.60;;;8.40;89.00;;;;;;4931403;29;20027;-69
2021/05/04 07:49:11;;;;;;;5.20;2.28;;;8.30;89.30;;;;;;4931790;29;20035;-70
2021/05/04 07:51:37;;;;;;;5.72;2.45;;;8.30;88.80;;;;;;4932657;29;20400;-70
2021/05/04 07:54:03;;;;;;;3.65;2.10;;;8.30;88.80;;;;;;4928534;29;20322;-70
2021/05/04 07:56:29;;;;;;;4.20;2.40;;;8.30;88.70;;;;;;4931688;29;20178;-70
2021/05/04 07:58:55;;;;;;;3.08;2.17;;;8.30;88.90;;;;;;4931310;29;20035;-71
2021/05/04 08:01:20;;;;;;;2.80;1.85;;;8.30;88.70;;;;;;4930684;29;20062;-71
2021/05/04 08:03:46;;;;;;;3.92;2.00;;;8.40;88.20;;;;;;4929528;29;20079;-70
2021/05/04 08:06:11;;;;;;;3.45;2.10;;;8.40;88.00;;;;;;4931162;29;20040;-70
2021/05/04 08:08:37;;;;;;;2.10;1.77;;;8.40;87.60;;;;;;4931766;29;20040;-70
2021/05/04 08:11:02;;;;;;;2.75;2.00;;;8.50;87.20;;;;;;4931947;29;20027;-72
2021/05/04 08:13:28;;;;;;;4.55;1.88;;;8.70;85.90;;;;;;4930590;29;20405;-70
2021/05/04 08:15:54;;;;;;;3.10;1.90;;;8.90;85.90;;;;;;4930394;29;20488;-70
2021/05/04 08:18:20;;;;;;;4.28;1.63;;;9.00;85.90;;;;;;4930914;29;20039;-71
2021/05/04 08:20:48;;;;;;;2.92;1.90;;;9.30;85.40;;;;;;4931258;29;20440;-71
2021/05/04 08:23:16;;;;;;;2.58;1.40;;;9.50;83.80;;;;;;4930947;29;20074;-71
2021/05/04 08:25:42;;;;;;;3.80;1.60;;;9.60;83.30;;;;;;4930269;29;20031;-71
2021/05/04 08:28:08;;;;;;;5.22;1.73;;;9.60;84.80;;;;;;4931473;29;20019;-74
2021/05/04 08:30:34;;;;;;;3.33;1.42;;;9.50;84.90;;;;;;4930478;29;20046;-70
2021/05/04 08:32:59;;;;;;;3.20;1.80;;;9.40;84.80;;;;;;4929808;29;20024;-70
2021/05/04 08:35:26;;;;;;;3.42;1.88;;;9.40;84.30;;;;;;4930754;29;20028;-70
2021/05/04 08:37:55;;;;;;;2.88;1.80;;;9.30;85.30;;;;;;4926890;29;20392;-69
2021/05/04 08:40:21;;;;;;;3.63;1.73;;;9.30;84.00;;;;;;4930309;29;20070;-73
2021/05/04 08:42:47;;;;;;;2.22;1.40;;;9.50;84.50;;;;;;4929989;29;20468;-74
2021/05/04 08:45:14;;;;;;;4.30;1.65;;;9.50;83.60;;;;;;4930428;29;20083;-71
2021/05/04 08:47:44;;;;;;;3.05;1.40;;;9.50;84.20;;;;;;4930933;29;20031;-70
2021/05/04 08:50:14;;;;;;;1.77;1.23;;;9.40;83.40;;;;;;4930861;29;20102;-70
2021/05/04 08:52:39;;;;;;;2.95;1.67;;;9.50;82.90;;;;;;4939539;29;20031;-73
2021/05/04 08:55:06;;;;;;;3.75;1.10;;;9.50;82.10;;;;;;4929454;29;20035;-70
2021/05/04 08:57:34;;;;;;;3.95;1.17;;;9.60;82.10;;;;;;4930362;29;20062;-70
2021/05/04 09:00:00;;;;;;;3.13;1.42;;;9.60;81.20;;;;;;4929803;29;20535;-73
2021/05/04 09:02:25;;;;;;;3.78;1.30;;;9.60;81.50;;;;;;4928782;29;20054;-70
2021/05/04 09:04:55;;;;;;;3.10;0.90;;;9.80;81.70;;;;;;4930271;29;20032;-69
2021/05/04 09:07:30;;;;;;;1.98;1.00;;;10.00;80.70;;;;;;4930317;29;20032;-72
2021/05/04 09:10:35;;;;;;;1.35;1.00;;;10.10;79.50;;;;;;4938534;29;20126;-71
2021/05/04 09:13:06;;;;;;;1.33;0.90;;;10.00;79.90;;;;;;4929810;29;20027;-71
2021/05/04 09:21:12;;;;;;;2.10;1.02;;;9.80;79.40;;;;;;4927520;29;20099;-70
2021/05/04 09:23:43;;;;;;;2.17;1.05;;;9.80;79.90;;;;;;4924371;29;20027;-71
2021/05/04 09:26:22;;;;;;;2.55;1.00;;;9.90;81.00;;;;;;4928429;29;20438;-71
2021/05/04 09:28:52;;;;;;;2.85;1.20;;;9.90;80.30;;;;;;4929077;29;20232;-71
2021/05/04 09:31:38;;;;;;;1.20;0.93;;;9.90;81.00;;;;;;4929537;29;20046;-72
2021/05/04 09:34:08;;;;;;;4.95;1.30;;;9.90;80.80;;;;;;4929056;29;20040;-71
2021/05/04 09:36:46;;;;;;;5.00;1.13;;;9.80;80.80;;;;;;4930004;29;20035;-71
2021/05/04 09:39:24;;;;;;;3.25;1.10;;;9.80;81.20;;;;;;4923831;29;20066;-69
2021/05/04 09:41:50;;;;;;;3.97;1.67;;;9.70;80.80;;;;;;4929464;29;20498;-71
2021/05/04 09:44:38;;;;;;;3.17;1.60;;;9.80;81.30;;;;;;4930735;29;20043;-71
2021/05/04 09:47:05;;;;;;;5.35;1.70;;;9.80;81.10;;;;;;4926989;29;20151;-71
2021/05/04 09:49:33;;;;;;;2.38;1.38;;;9.90;79.90;;;;;;4931936;29;20103;-71
2021/05/04 09:52:24;;;;;;;4.30;1.70;;;9.90;80.70;;;;;;4928274;29;20038;-71
2021/05/04 09:54:50;;;;;;;4.97;1.58;;;9.80;80.40;;;;;;4927282;29;20114;-70
2021/05/04 09:57:34;;;;;;;2.65;1.45;;;9.80;80.70;;;;;;4909206;29;20279;-72
2021/05/04 10:00:00;;;;;;;4.32;1.45;;;9.80;80.60;;;;;;4928762;29;20028;-72
2021/05/04 10:02:28;;;;;;;4.82;1.80;;;9.80;80.50;;;;;;4926827;29;20064;-71
2021/05/04 10:04:54;;;;;;;3.10;1.58;;;10.00;80.40;;;;;;4928774;29;20019;-70
2021/05/04 10:07:23;;;;;;;5.05;1.83;;;10.00;79.90;;;;;;4929483;29;20678;-70
2021/05/04 10:09:50;;;;;;;2.83;1.42;;;10.10;79.70;;;;;;4927262;29;20214;-71
2021/05/04 10:12:20;;;;;;;3.05;1.52;;;10.10;80.00;;;;;;4929443;29;20389;-71
2021/05/04 10:14:48;;;;;;;3.05;1.23;;;10.20;80.40;;;;;;4928100;29;20512;-71
2021/05/04 10:17:16;;;;;;;3.00;1.55;;;10.30;79.40;;;;;;4929889;29;20023;-71
2021/05/04 10:19:42;;;;;;;1.92;1.33;;;10.40;79.20;;;;;;4926977;29;20064;-72
2021/05/04 10:22:08;;;;;;;3.75;1.65;;;10.40;79.10;;;;;;4928668;29;20130;-72
2021/05/04 10:24:34;;;;;;;1.80;1.40;;;10.50;79.70;;;;;;4927043;29;20428;-73
2021/05/04 10:27:04;;;;;;;4.13;1.50;;;10.70;79.40;;;;;;4923073;29;20040;-71
2021/05/04 10:29:31;;;;;;;3.42;1.50;;;11.00;79.60;;;;;;4926173;29;20047;-72
2021/05/04 10:31:58;;;;;;;1.73;1.23;;;11.10;79.20;;;;;;4928862;29;20409;-71
2021/05/04 10:34:25;;;;;;;4.07;1.50;;;11.00;79.30;;;;;;4927949;29;20091;-71
2021/05/04 10:36:55;;;;;;;1.27;1.08;;;11.00;78.40;;;;;;4931523;29;20028;-71
2021/05/04 10:39:38;;;;;;;2.13;1.10;;;11.10;78.10;;;;;;4932200;29;20082;-71
2021/05/04 10:42:05;;;;;;;1.48;1.08;;;11.50;78.60;;;;;;4927897;29;20032;-73
2021/05/04 10:44:51;;;;;;;3.72;1.10;;;11.40;78.40;;;;;;4931821;29;20402;-74
2021/05/04 10:47:39;;;;;;;2.15;1.00;;;11.30;79.30;;;;;;4914473;29;20043;-72
2021/05/04 10:50:08;;;;;;;4.25;1.10;;;10.60;80.10;;;;;;4932243;29;20059;-71
2021/05/04 10:52:52;;;;;;;1.98;1.02;;;10.80;80.90;;;;;;4932611;29;20031;-71
2021/05/04 10:55:23;;;;;;;1.65;0.90;;;10.60;81.40;;;;;;4931763;29;20254;-72
2021/05/04 10:58:01;;;;;;;1.45;1.00;;;10.60;81.30;;;;;;4932258;29;20032;-72
2021/05/04 11:00:49;;;;;;;2.53;1.10;;;10.60;82.30;;;;;;4931284;29;20031;-72
2021/05/04 11:03:30;;;;;;;3.35;1.38;;;10.60;82.10;;;;;;4932129;29;20305;-72
2021/05/04 11:06:08;;;;;;;2.42;1.20;;;10.60;82.30;;;;;;4932434;29;20126;-72
2021/05/04 11:08:41;;;;;;;2.88;1.30;;;10.40;82.90;;;;;;4927842;29;20051;-71
2021/05/04 11:11:23;;;;;;;1.10;1.00;;;10.70;83.30;;;;;;4932104;29;20028;-73
2021/05/04 11:13:51;;;;;;;3.55;1.10;;;11.00;82.70;;;;;;4930224;29;20433;-71
2021/05/04 11:16:35;;;;;;;2.60;1.20;;;11.20;82.00;;;;;;4912825;29;20110;-72
2021/05/04 11:19:08;;;;;;;1.77;1.20;;;11.10;81.40;;;;;;4926177;29;20028;-72
2021/05/04 11:21:44;;;;;;;2.58;1.38;;;11.00;82.20;;;;;;4931727;29;20031;-73
2021/05/04 11:24:12;;;;;;;1.88;1.40;;;10.70;81.70;;;;;;4928592;29;20392;-71
2021/05/04 11:26:44;;;;;;;1.70;1.30;;;10.70;81.60;;;;;;4924111;29;20122;-72
2021/05/04 11:29:10;;;;;;;4.03;1.42;;;10.80;81.60;;;;;;4927966;29;20584;-71
2021/05/04 11:31:43;;;;;;;2.22;1.52;;;10.90;81.40;;;;;;4927438;29;20068;-72
2021/05/04 11:34:40;;;;;;;2.78;1.58;;;11.00;81.50;;;;;;4931003;29;20035;-72
2021/05/04 11:37:11;;;;;;;2.42;1.42;;;11.00;81.00;;;;;;4931593;29;20070;-73
2021/05/04 11:39:59;;;;;;;5.93;1.95;;;11.30;81.80;;;;;;4931178;29;20024;-72
2021/05/04 11:42:38;;;;;;;3.45;1.60;;;11.20;84.40;;;;;;4928559;29;20516;-72
2021/05/04 11:45:08;;;;;;;2.85;1.50;;;10.90;84.30;;;;;;4930839;29;20070;-70
2021/05/04 11:47:34;;;;;;;6.05;1.92;;;10.50;84.70;;;;;;4931287;29;20203;-70
2021/05/04 11:50:09;;;;;;;4.43;1.70;;;10.40;85.80;;;;;;4931520;29;20031;-73
2021/05/04 11:52:36;;;;;;;2.80;1.80;;;10.20;86.00;;;;;;4931190;29;20522;-71
2021/05/04 11:55:17;;;;;;;3.58;1.85;;;10.10;87.10;;;;;;4927753;29;20140;-71
2021/05/04 11:57:45;;;;;;;6.30;2.17;;;9.90;87.80;;;;;;4928657;29;20119;-70
2021/05/04 12:00:16;;;;;;;4.47;2.13;;;9.90;89.00;;;;;;4942662;29;20123;-70
2021/05/04 12:02:43;;;;;;;10.75;2.47;;;9.90;89.00;;;;;;4911734;29;20038;-71
2021/05/04 12:05:09;;;;;;;4.57;2.58;;;10.00;88.20;;;;;;4926656;29;20554;-70
2021/05/04 12:07:47;;;;;;;3.25;2.30;;;10.50;88.10;;;;;;4928073;29;20055;-71
2021/05/04 12:10:15;;;;;;;4.25;2.65;;;10.60;87.60;;;;;;4927450;29;20066;-71
2021/05/04 12:12:55;;;;;;;8.18;2.63;;;10.70;87.20;;;;;;4928557;29;20529;-71
2021/05/04 12:15:23;;;;;;;4.50;2.95;;;11.00;86.60;;;;;;4928161;29;20074;-71
2021/05/04 12:18:09;;;;;;;5.03;2.60;;;12.00;86.60;;;;;;4928366;29;20154;-72
2021/05/04 12:20:42;;;;;;;5.18;2.22;;;12.20;81.20;;;;;;4928003;29;20020;-72
2021/05/04 12:23:09;;;;;;;6.72;2.30;;;12.60;80.80;;;;;;4928153;29;20028;-71
2021/05/04 12:25:57;;;;;;;4.85;1.88;;;12.40;80.60;;;;;;4926590;29;20039;-72
2021/05/04 12:28:27;;;;;;;4.38;1.70;;;12.30;78.40;;;;;;4926783;29;20032;-71
2021/05/04 12:31:07;;;;;;;3.58;2.08;;;12.10;77.50;;;;;;4926782;29;20036;-72
2021/05/04 12:33:35;;;;;;;3.63;1.83;;;12.40;77.20;;;;;;4928142;29;20050;-71
2021/05/04 12:36:07;;;;;;;4.40;1.85;;;12.60;76.70;;;;;;4927459;29;20031;-71
2021/05/04 12:38:57;;;;;;;4.03;1.60;;;12.40;75.90;;;;;;4928180;29;20102;-70
2021/05/04 12:41:31;;;;;;;6.45;1.52;;;12.10;77.30;;;;;;4927097;29;20122;-73
2021/05/04 12:44:24;;;;;;;2.60;1.50;;;12.00;77.40;;;;;;4925920;29;20015;-71
2021/05/04 12:46:50;;;;;;;1.65;1.10;;;11.90;76.70;;;;;;4928202;29;20493;-71
2021/05/04 12:49:16;;;;;;;3.38;1.30;;;11.80;76.10;;;;;;4926775;29;20036;-71
2021/05/04 12:51:54;;;;;;;6.35;1.20;;;11.80;77.90;;;;;;4929760;29;20023;-71
2021/05/04 12:54:21;;;;;;;1.80;1.08;;;11.60;74.80;;;;;;4927231;29;20082;-70
2021/05/04 12:56:50;;;;;;;1.50;0.88;;;11.50;74.50;;;;;;4926668;29;20028;-73
2021/05/04 12:59:29;;;;;;;2.88;1.02;;;11.40;75.80;;;;;;4927151;28;20110;-72
2021/05/04 13:01:56;;;;;;;4.60;0.93;;;11.20;75.30;;;;;;4926982;29;20481;-74
2021/05/04 13:05:16;;;;;;;2.30;0.73;;;11.10;77.30;;;;;;4926550;29;20020;-72